createdAt,value
2019-04-21T00:02:42.382Z,7.00
2019-04-21T00:07:04.477Z,7.03
2019-04-21T00:11:15.300Z,8.13
2019-04-21T00:15:12.436Z,7.40
2019-04-21T00:19:28.063Z,7.53
2019-04-21T00:23:47.334Z,7.13
2019-04-21T00:27:50.368Z,7.73
2019-04-21T00:31:57.936Z,7.70
2019-04-21T00:35:59.270Z,7.37
2019-04-21T00:40:18.739Z,7.30
2019-04-21T00:44:14.256Z,7.93
2019-04-21T00:48:32.941Z,7.67
2019-04-21T00:52:58.242Z,8.00
2019-04-21T00:57:02.673Z,8.07
2019-04-21T01:01:08.925Z,7.50
2019-04-21T01:05:18.310Z,8.20
2019-04-21T01:09:13.808Z,8.20
2019-04-21T01:13:27.957Z,8.03
2019-04-21T01:17:28.801Z,8.20
2019-04-21T01:21:18.328Z,8.47
2019-04-21T01:25:34.843Z,8.30
2019-04-21T01:29:58.790Z,7.80
2019-04-21T01:33:57.708Z,8.77
2019-04-21T01:38:10.970Z,8.40
2019-04-21T01:42:09.494Z,8.23
2019-04-21T01:46:16.395Z,7.83
2019-04-21T01:50:21.077Z,8.27
2019-04-21T01:55:04.882Z,8.47
2019-04-21T01:58:55.283Z,8.63
2019-04-21T02:03:28.959Z,8.83
2019-04-21T02:07:20.683Z,8.90
2019-04-21T02:11:30.037Z,8.93
2019-04-21T02:15:42.388Z,8.87
2019-04-21T02:19:35.958Z,9.03
2019-04-21T02:23:57.427Z,8.77
2019-04-21T02:28:01.155Z,9.57
2019-04-21T02:32:20.227Z,8.63
2019-04-21T02:36:40.350Z,9.13
2019-04-21T02:40:35.674Z,9.03
2019-04-21T02:44:39.268Z,9.07
2019-04-21T02:48:43.554Z,9.30
2019-04-21T02:57:01.595Z,9.93
2019-04-21T03:01:14.447Z,9.83
2019-04-21T03:05:41.709Z,10.33
2019-04-21T03:09:44.452Z,10.03
2019-04-21T03:18:08.199Z,10.28
2019-04-21T03:21:57.613Z,10.17
2019-04-21T03:26:11.771Z,10.07
2019-04-21T03:30:45.142Z,10.43
2019-04-21T03:34:51.537Z,10.73
2019-04-21T03:38:27.058Z,11.10
2019-04-21T03:42:34.508Z,10.63
2019-04-21T03:46:41.869Z,10.27
2019-04-21T03:50:51.915Z,10.13
2019-04-21T03:59:16.566Z,10.53
2019-04-21T04:04:07.004Z,10.70
2019-04-21T04:08:12.880Z,10.07
2019-04-21T04:12:01.094Z,10.53
2019-04-21T04:16:20.236Z,10.30
2019-04-21T04:24:39.107Z,10.57
2019-04-21T04:28:49.913Z,11.90
2019-04-21T04:32:42.107Z,11.10
2019-04-21T04:37:15.529Z,11.87
2019-04-21T04:41:22.298Z,11.47
2019-04-21T04:49:43.605Z,12.53
2019-04-21T04:53:42.740Z,11.63
2019-04-21T05:01:57.666Z,11.63
2019-04-21T05:10:44.896Z,12.67
2019-04-21T05:14:38.997Z,12.40
2019-04-21T05:18:56.365Z,11.60
2019-04-21T05:22:42.625Z,12.43
2019-04-21T05:26:47.961Z,12.50
2019-04-21T05:31:13.874Z,11.60
2019-04-21T05:35:24.468Z,12.03
2019-04-21T05:39:23.135Z,12.50
2019-04-21T05:43:40.421Z,12.83
2019-04-21T05:48:12.230Z,11.77
2019-04-21T05:52:03.728Z,12.27
2019-04-21T05:56:46.473Z,15.23
2019-04-21T06:01:14.847Z,16.10
2019-04-21T06:09:17.853Z,23.93
2019-04-21T06:13:26.879Z,26.60
2019-04-21T06:17:33.115Z,28.47
2019-04-21T06:21:33.242Z,27.17
2019-04-21T06:29:50.096Z,30.23
2019-04-21T06:34:08.102Z,28.40
2019-04-21T06:38:04.649Z,28.17
2019-04-21T06:42:09.788Z,25.37
2019-04-21T06:46:21.337Z,24.10
2019-04-21T06:50:23.948Z,20.90
2019-04-21T06:54:33.898Z,19.67
2019-04-21T06:58:35.863Z,19.07
2019-04-21T07:10:56.789Z,17.03
2019-04-21T07:15:06.710Z,17.03
2019-04-21T07:19:25.744Z,15.43
2019-04-21T07:23:24.833Z,15.50
2019-04-21T07:27:30.190Z,14.87
2019-04-21T07:31:39.810Z,15.97
2019-04-21T07:35:46.080Z,13.93
2019-04-21T07:39:45.051Z,14.45
2019-04-21T07:43:55.686Z,13.77
2019-04-21T07:48:16.101Z,15.23
2019-04-21T07:52:52.139Z,13.70
2019-04-21T07:56:34.919Z,12.70
2019-04-21T08:00:56.445Z,13.80
2019-04-21T08:05:13.471Z,14.17
2019-04-21T08:09:07.354Z,14.50
2019-04-21T08:13:23.042Z,14.60
2019-04-21T08:17:24.169Z,14.45
2019-04-21T08:21:37.225Z,14.93
2019-04-21T08:25:50.836Z,14.73
2019-04-21T08:29:48.880Z,13.90
2019-04-21T08:34:01.975Z,13.53
2019-04-21T08:38:05.342Z,13.32
2019-04-21T08:42:03.333Z,13.50
2019-04-21T08:46:13.831Z,14.13
2019-04-21T08:50:20.868Z,13.50
2019-04-21T08:54:26.543Z,13.20
2019-04-21T08:58:59.065Z,12.03
2019-04-21T09:03:11.737Z,12.25
2019-04-21T09:07:13.009Z,12.82
2019-04-21T09:11:16.341Z,12.28
2019-04-21T09:15:27.744Z,12.10
2019-04-21T09:19:44.291Z,11.53
2019-04-21T09:23:39.234Z,11.83
2019-04-21T09:27:55.603Z,11.83
2019-04-21T09:31:46.019Z,10.72
2019-04-21T09:35:58.827Z,11.15
2019-04-21T09:39:57.861Z,11.25
2019-04-21T09:44:06.873Z,11.57
2019-04-21T09:48:16.448Z,10.50
2019-04-21T09:52:23.203Z,10.47
2019-04-21T09:56:34.385Z,10.08
2019-04-21T10:00:42.476Z,10.28
2019-04-21T10:04:37.981Z,9.65
2019-04-21T10:08:44.529Z,9.80
2019-04-21T10:12:49.990Z,8.05
2019-04-21T10:17:15.082Z,8.18
2019-04-21T10:21:21.686Z,9.10
2019-04-21T10:25:28.256Z,8.45
2019-04-21T10:29:35.793Z,8.85
2019-04-21T10:34:05.269Z,8.70
2019-04-21T10:38:10.405Z,8.25
2019-04-21T10:42:01.527Z,8.98
2019-04-21T10:46:06.714Z,10.10
2019-04-21T10:50:13.206Z,9.90
2019-04-21T10:54:19.986Z,8.53
2019-04-21T10:58:28.555Z,9.28
2019-04-21T11:02:39.606Z,10.15
2019-04-21T11:06:46.324Z,9.88
2019-04-21T11:10:51.964Z,10.13
2019-04-21T11:14:57.075Z,11.28
2019-04-21T11:19:02.241Z,11.35
2019-04-21T11:23:08.043Z,11.78
2019-04-21T11:27:13.102Z,11.05
2019-04-21T11:31:18.792Z,11.60
2019-04-21T11:35:25.468Z,11.73
2019-04-21T11:39:42.139Z,11.97
2019-04-21T11:43:39.184Z,12.20
2019-04-21T11:48:03.992Z,12.78
2019-04-21T11:52:16.918Z,12.68
2019-04-21T11:56:23.087Z,12.13
2019-04-21T12:00:29.454Z,11.68
2019-04-21T12:04:35.783Z,11.73
2019-04-21T12:08:45.724Z,11.95
2019-04-21T12:12:47.621Z,11.60
2019-04-21T12:16:55.171Z,10.80
2019-04-21T12:21:01.212Z,11.43
2019-04-21T12:25:11.150Z,11.22
2019-04-21T12:29:16.653Z,10.23
2019-04-21T12:33:28.229Z,9.90
2019-04-21T12:37:33.393Z,11.57
2019-04-21T12:41:38.599Z,10.60
2019-04-21T12:45:44.107Z,11.48
2019-04-21T12:49:49.879Z,12.88
2019-04-21T12:53:55.038Z,11.00
2019-04-21T12:58:01.416Z,11.55
2019-04-21T13:02:07.751Z,11.22
2019-04-21T13:06:13.859Z,11.80
2019-04-21T13:10:20.234Z,11.28
2019-04-21T13:14:26.132Z,10.45
2019-04-21T13:18:31.399Z,9.50
2019-04-21T13:22:37.536Z,10.53
2019-04-21T13:26:47.389Z,10.68
2019-04-21T13:30:50.655Z,10.85
2019-04-21T13:34:57.018Z,10.82
2019-04-21T13:43:27.338Z,9.93
2019-04-21T13:47:32.646Z,9.53
2019-04-21T13:51:38.224Z,9.30
2019-04-21T13:55:44.655Z,10.15
2019-04-21T13:59:51.311Z,10.68
2019-04-21T14:03:57.739Z,12.28
2019-04-21T14:08:03.163Z,10.43
2019-04-21T14:12:09.568Z,9.60
2019-04-21T14:16:16.025Z,9.48
2019-04-21T14:20:21.667Z,10.13
2019-04-21T14:24:26.809Z,11.78
2019-04-21T14:28:32.170Z,9.75
2019-04-21T14:32:37.997Z,9.88
2019-04-21T14:36:44.559Z,8.93
2019-04-21T14:42:38.229Z,10.10
2019-04-21T14:45:12.821Z,10.28
2019-04-21T14:49:23.597Z,10.08
2019-04-21T14:53:36.031Z,9.23
2019-04-21T14:57:41.201Z,10.40
2019-04-21T15:01:46.404Z,9.35
2019-04-21T15:05:51.928Z,8.73
2019-04-21T15:10:04.431Z,8.85
2019-04-21T15:14:04.114Z,8.90
2019-04-21T15:18:10.459Z,8.58
2019-04-21T15:22:16.456Z,8.95
2019-04-21T15:26:22.088Z,9.00
2019-04-21T15:30:27.169Z,8.85
2019-04-21T15:34:32.318Z,9.03
2019-04-21T15:38:38.091Z,9.15
2019-04-21T15:42:44.354Z,8.50
2019-04-21T15:46:50.537Z,9.85
2019-04-21T15:50:56.768Z,8.70
2019-04-21T15:55:06.520Z,8.55
2019-04-21T15:59:28.345Z,9.05
2019-04-21T16:03:34.486Z,8.75
2019-04-21T16:07:40.299Z,8.63
2019-04-21T16:11:46.140Z,7.72
2019-04-21T16:15:52.411Z,8.40
2019-04-21T16:19:57.753Z,7.90
2019-04-21T16:24:02.885Z,8.08
2019-04-21T16:28:08.911Z,8.35
2019-04-21T16:32:17.526Z,8.65
2019-04-21T16:36:20.945Z,7.97
2019-04-21T16:40:27.639Z,7.00
2019-04-21T16:44:34.620Z,7.58
2019-04-21T16:48:39.952Z,7.22
2019-04-21T16:52:52.260Z,7.78
2019-04-21T16:57:12.400Z,7.67
2019-04-21T17:01:22.400Z,7.90
2019-04-21T17:05:28.013Z,7.50
2019-04-21T17:09:34.625Z,7.03
2019-04-21T17:13:39.921Z,8.25
2019-04-21T17:18:06.387Z,7.95
2019-04-21T17:21:52.171Z,7.60
2019-04-21T17:25:57.390Z,7.50
2019-04-21T17:30:02.532Z,7.40
2019-04-21T17:34:13.741Z,7.05
2019-04-21T17:38:14.592Z,6.60
2019-04-21T17:42:29.787Z,6.97
2019-04-21T17:46:36.665Z,6.95
2019-04-21T17:50:47.491Z,7.20
2019-04-21T17:55:10.381Z,6.17
2019-04-21T17:59:46.360Z,6.37
2019-04-21T18:07:46.407Z,6.07
2019-04-21T18:11:51.088Z,5.75
2019-04-21T18:15:56.808Z,5.65
2019-04-21T18:19:51.752Z,6.17
2019-04-21T18:24:07.345Z,6.45
2019-04-21T18:28:06.651Z,6.92
2019-04-21T18:32:12.645Z,6.68
2019-04-21T18:36:29.064Z,6.83
2019-04-21T18:40:36.405Z,7.20
2019-04-21T18:49:11.352Z,7.17
2019-04-21T18:53:41.188Z,6.40
2019-04-21T18:57:39.310Z,6.70
2019-04-21T19:01:38.914Z,7.10
2019-04-21T19:05:49.080Z,6.78
2019-04-21T19:10:26.747Z,6.80
2019-04-21T19:14:36.188Z,7.47
2019-04-21T19:22:38.760Z,6.65
2019-04-21T19:30:56.475Z,6.87
2019-04-21T19:34:40.903Z,7.28
2019-04-21T19:38:55.963Z,7.03
2019-04-21T19:43:02.993Z,7.20
2019-04-21T19:47:25.947Z,6.92
2019-04-21T19:51:24.406Z,6.78
2019-04-21T19:55:13.963Z,6.65
2019-04-21T19:59:31.818Z,7.22
2019-04-21T20:03:26.360Z,7.30
2019-04-21T20:07:49.447Z,8.10
2019-04-21T20:11:54.995Z,6.92
2019-04-21T20:16:07.985Z,7.40
2019-04-21T20:19:54.395Z,7.37
2019-04-21T20:24:06.079Z,8.33
2019-04-21T20:28:15.059Z,8.18
2019-04-21T20:32:30.559Z,8.15
2019-04-21T20:36:41.868Z,8.30
2019-04-21T20:40:36.203Z,8.38
2019-04-21T20:44:54.622Z,8.37
2019-04-21T20:48:52.339Z,8.08
2019-04-21T20:53:04.583Z,8.53
2019-04-21T20:57:11.390Z,8.20
2019-04-21T21:01:31.316Z,7.97
2019-04-21T21:05:23.362Z,7.20
2019-04-21T21:09:28.251Z,7.62
2019-04-21T21:13:42.781Z,7.93
2019-04-21T21:17:52.430Z,7.50
2019-04-21T21:21:48.619Z,7.47
2019-04-21T21:26:01.896Z,7.47
2019-04-21T21:30:05.509Z,6.65
2019-04-21T21:34:15.325Z,7.03
2019-04-21T21:38:21.339Z,7.40
2019-04-21T21:42:11.449Z,7.73
2019-04-21T21:46:37.169Z,7.77
2019-04-21T21:50:29.531Z,7.05
2019-04-21T21:54:29.997Z,7.40
2019-04-21T21:58:39.278Z,6.90
2019-04-21T22:02:47.615Z,8.00
2019-04-21T22:06:57.578Z,8.00
2019-04-21T22:10:56.968Z,8.28
2019-04-21T22:15:09.054Z,7.20
2019-04-21T22:19:25.731Z,8.07
2019-04-21T22:23:29.529Z,7.55
2019-04-21T22:27:23.371Z,8.00
2019-04-21T22:31:33.663Z,8.37
2019-04-21T22:35:42.569Z,7.37
2019-04-21T22:39:57.897Z,7.50
2019-04-21T22:43:51.763Z,7.50
2019-04-21T22:48:05.274Z,7.30
2019-04-21T22:52:08.848Z,7.67
2019-04-21T22:56:14.953Z,8.20
2019-04-21T23:00:19.200Z,8.73
2019-04-21T23:04:35.858Z,8.20
2019-04-21T23:08:36.959Z,8.40
2019-04-21T23:12:41.808Z,8.77
2019-04-21T23:16:50.669Z,8.57
2019-04-21T23:21:10.161Z,8.27
2019-04-21T23:25:19.858Z,8.90
2019-04-21T23:29:39.549Z,8.33
2019-04-21T23:33:17.986Z,9.70
2019-04-21T23:37:25.378Z,11.27
2019-04-21T23:41:40.461Z,12.27
2019-04-21T23:45:44.686Z,11.63
2019-04-21T23:49:59.611Z,10.70
2019-04-21T23:53:55.446Z,11.40
2019-04-21T23:58:06.954Z,11.30
